Time;durP1;ratioP1;P1;durP2;ratioP2;P2;SDS_P1;SDS_P2;PMS_P1;PMS_P2;Temp;Humidity;BMP_temperature;BMP_pressure;BME280_temperature;BME280_humidity;BME280_pressure;Samples;Min_cycle;Max_cycle;Signal;HPM_P1;HPM_P2
2023/10/26 00:01:42;;;;;;;;;;;;;;;13.81;65.59;99574.72;4950241;28;20005;-82
2023/10/26 00:04:07;;;;;;;;;;;;;;;13.81;65.54;99572.00;4951383;29;20386;-82
2023/10/26 00:06:32;;;;;;;;;;;;;;;13.81;65.58;99574.72;4949147;29;19925;-82
2023/10/26 00:08:58;;;;;;;;;;;;;;;13.80;65.59;99576.59;4949084;28;20041;-81
2023/10/26 00:11:23;;;;;;;;;;;;;;;13.81;65.50;99586.38;4951720;29;20352;-82
2023/10/26 00:13:48;;;;;;;;;;;;;;;13.83;65.45;99592.31;4947741;29;19969;-83
2023/10/26 00:16:13;;;;;;;;;;;;;;;13.82;65.37;99587.19;4934048;29;19940;-82
2023/10/26 00:18:39;;;;;;;;;;;;;;;13.82;65.45;99595.31;4948687;28;20382;-83
2023/10/26 00:21:04;;;;;;;;;;;;;;;13.83;65.29;99594.22;4946874;29;20013;-82
2023/10/26 00:23:29;;;;;;;;;;;;;;;13.82;65.60;99587.97;4951078;29;19922;-82
2023/10/26 00:25:55;;;;;;;;;;;;;;;13.82;65.52;99598.03;4949640;29;19966;-82
2023/10/26 00:28:20;;;;;;;;;;;;;;;13.84;65.64;99595.84;4960119;28;20345;-83
2023/10/26 00:30:45;;;;;;;;;;;;;;;13.84;65.49;99593.94;4952719;28;19923;-83
2023/10/26 00:33:11;;;;;;;;;;;;;;;13.84;65.41;99598.56;4949625;29;19922;-82
2023/10/26 00:35:36;;;;;;;;;;;;;;;13.84;65.42;99593.13;4951676;29;20564;-82
2023/10/26 00:38:01;;;;;;;;;;;;;;;13.83;65.28;99603.19;4948655;28;19930;-82
2023/10/26 00:40:27;;;;;;;;;;;;;;;13.83;65.45;99599.63;4960377;28;19922;-81
2023/10/26 00:42:58;;;;;;;;;;;;;;;13.83;65.27;99600.47;4948697;29;19914;-83
2023/10/26 00:45:23;;;;;;;;;;;;;;;13.83;65.45;99610.50;4942634;29;19918;-83
2023/10/26 00:47:50;;;;;;;;;;;;;;;13.83;65.40;99605.06;4935094;29;19926;-83
2023/10/26 00:50:16;;;;;;;;;;;;;;;13.83;65.46;99605.06;4933192;29;20035;-83
2023/10/26 00:52:41;;;;;;;;;;;;;;;13.83;65.36;99605.91;4948611;28;20009;-83
2023/10/26 00:55:07;;;;;;;;;;;;;;;13.82;65.30;99601.53;4951907;29;19927;-84
2023/10/26 00:57:32;;;;;;;;;;;;;;;13.82;65.31;99603.47;4941318;29;20287;-83
2023/10/26 00:59:59;;;;;;;;;;;;;;;13.81;65.55;99608.09;4933010;29;19914;-83
2023/10/26 01:02:25;;;;;;;;;;;;;;;13.81;65.50;99616.22;4948737;28;19915;-83
2023/10/26 01:04:50;;;;;;;;;;;;;;;13.80;65.50;99611.88;4947703;29;19953;-83
2023/10/26 01:07:15;;;;;;;;;;;;;;;13.81;65.22;99612.72;4939307;28;19919;-83
2023/10/26 01:09:41;;;;;;;;;;;;;;;13.80;65.47;99614.59;4933401;29;19993;-84
2023/10/26 01:12:06;;;;;;;;;;;;;;;13.79;65.59;99604.84;4950946;29;19923;-83
2023/10/26 01:14:32;;;;;;;;;;;;;;;13.79;65.26;99607.56;4951616;28;19926;-83
2023/10/26 01:16:57;;;;;;;;;;;;;;;13.79;65.28;99606.75;4962890;28;19922;-83
2023/10/26 01:19:35;;;;;;;;;;;;;;;13.79;65.22;99604.84;4935360;29;19923;-84
2023/10/26 01:22:01;;;;;;;;;;;;;;;13.79;65.26;99601.34;4935972;29;20005;-84
2023/10/26 01:24:26;;;;;;;;;;;;;;;13.78;65.23;99611.38;4951469;29;19949;-84
2023/10/26 01:26:51;;;;;;;;;;;;;;;13.78;65.16;99608.69;4951182;29;19929;-83
2023/10/26 01:29:17;;;;;;;;;;;;;;;13.78;65.58;99611.38;4948880;29;19922;-84
2023/10/26 01:31:42;;;;;;;;;;;;;;;13.77;65.50;99612.47;4941102;29;20145;-83
2023/10/26 01:34:07;;;;;;;;;;;;;;;13.77;65.47;99612.47;4938013;29;20363;-84
2023/10/26 01:36:33;;;;;;;;;;;;;;;13.76;65.22;99605.44;4954235;29;20013;-83
2023/10/26 01:39:00;;;;;;;;;;;;;;;13.76;65.30;99613.59;4922560;29;19929;-84
2023/10/26 01:41:25;;;;;;;;;;;;;;;13.75;65.25;99609.25;4954040;29;20370;-84
2023/10/26 01:43:50;;;;;;;;;;;;;;;13.76;65.38;99612.78;4951238;29;19989;-84
2023/10/26 01:46:16;;;;;;;;;;;;;;;13.75;65.38;99620.09;4938663;29;20462;-82
2023/10/26 01:48:41;;;;;;;;;;;;;;;13.74;65.44;99620.41;4937422;29;19919;-84
2023/10/26 01:51:06;;;;;;;;;;;;;;;13.74;65.25;99623.13;4944236;29;20087;-84
2023/10/26 01:53:31;;;;;;;;;;;;;;;13.73;65.42;99613.34;4939658;29;19957;-84
2023/10/26 01:55:57;;;;;;;;;;;;;;;13.72;65.45;99615.25;4967860;28;19934;-84
2023/10/26 01:58:23;;;;;;;;;;;;;;;13.72;65.40;99619.88;4945105;29;19933;-84
2023/10/26 02:00:48;;;;;;;;;;;;;;;13.71;65.43;99621.78;4951397;28;19918;-84
2023/10/26 02:03:15;;;;;;;;;;;;;;;13.72;65.42;99611.72;4936864;29;20022;-83
2023/10/26 02:05:40;;;;;;;;;;;;;;;13.70;65.53;99601.16;4946181;29;20013;-84
2023/10/26 02:08:06;;;;;;;;;;;;;;;13.70;65.24;99609.31;4938574;29;20017;-84
2023/10/26 02:10:31;;;;;;;;;;;;;;;13.69;65.28;99615.84;4952519;29;20379;-85
2023/10/26 02:12:56;;;;;;;;;;;;;;;13.70;65.24;99608.50;4952696;29;19922;-84
2023/10/26 02:15:22;;;;;;;;;;;;;;;13.69;65.42;99604.19;4968748;28;20366;-84
2023/10/26 02:17:47;;;;;;;;;;;;;;;13.69;65.17;99609.63;4954768;29;19961;-84
2023/10/26 02:20:13;;;;;;;;;;;;;;;13.67;65.44;99593.59;4949709;28;20286;-84
2023/10/26 02:22:38;;;;;;;;;;;;;;;13.67;65.34;99596.31;4935901;29;19965;-83
2023/10/26 02:25:03;;;;;;;;;;;;;;;13.67;65.43;99601.75;4951554;28;19915;-84
2023/10/26 02:27:29;;;;;;;;;;;;;;;13.65;65.43;99601.22;4940219;29;19978;-85
2023/10/26 02:29:54;;;;;;;;;;;;;;;13.65;65.40;99598.50;4948181;29;19928;-84
2023/10/26 02:32:20;;;;;;;;;;;;;;;13.64;65.46;99599.63;4951347;28;20009;-84
2023/10/26 02:34:45;;;;;;;;;;;;;;;13.63;65.45;99612.38;4939202;29;19934;-84
2023/10/26 02:37:10;;;;;;;;;;;;;;;13.63;65.24;99606.13;4936084;29;19999;-84
2023/10/26 02:39:36;;;;;;;;;;;;;;;13.63;65.44;99601.53;4950064;29;19919;-84
2023/10/26 02:42:01;;;;;;;;;;;;;;;13.61;65.27;99601.00;4959477;28;19934;-84
2023/10/26 02:44:27;;;;;;;;;;;;;;;13.63;65.48;99606.13;4952122;29;19929;-84
2023/10/26 02:46:52;;;;;;;;;;;;;;;13.61;65.25;99597.50;4940815;29;19922;-85
2023/10/26 02:49:17;;;;;;;;;;;;;;;13.60;65.40;99591.25;4960842;28;20422;-85
2023/10/26 02:51:42;;;;;;;;;;;;;;;13.61;65.30;99586.66;4964724;28;19923;-85
2023/10/26 02:54:09;;;;;;;;;;;;;;;13.60;65.29;99587.72;4945214;29;20350;-85
2023/10/26 02:56:34;;;;;;;;;;;;;;;13.59;65.22;99600.50;4946057;29;19914;-84
2023/10/26 02:58:59;;;;;;;;;;;;;;;13.60;65.53;99595.88;4955093;28;19965;-85
2023/10/26 03:01:24;;;;;;;;;;;;;;;13.59;65.14;99602.41;4953519;29;19922;-85
2023/10/26 03:03:51;;;;;;;;;;;;;;;13.57;65.06;99597.25;4946780;29;20394;-85
2023/10/26 03:06:16;;;;;;;;;;;;;;;13.57;65.32;99594.53;4936132;29;19919;-84
2023/10/26 03:08:41;;;;;;;;;;;;;;;13.58;65.29;99598.06;4950476;29;19933;-84
2023/10/26 03:11:06;;;;;;;;;;;;;;;13.57;65.32;99599.16;4950149;29;19931;-84
2023/10/26 03:13:32;;;;;;;;;;;;;;;13.56;65.23;99595.66;4954909;29;20284;-84
2023/10/26 03:15:57;;;;;;;;;;;;;;;13.55;65.09;99591.31;4949537;29;19926;-84
2023/10/26 03:18:22;;;;;;;;;;;;;;;13.56;65.29;99584.00;4935541;29;19962;-84
2023/10/26 03:20:47;;;;;;;;;;;;;;;13.54;65.29;99584.28;4943589;29;20336;-84
2023/10/26 03:23:13;;;;;;;;;;;;;;;13.55;65.40;99582.38;4943217;29;19945;-84
2023/10/26 03:25:38;;;;;;;;;;;;;;;13.54;65.28;99586.19;4924468;29;19926;-84
2023/10/26 03:28:03;;;;;;;;;;;;;;;13.54;65.31;99583.47;4958364;28;19923;-85
2023/10/26 03:30:29;;;;;;;;;;;;;;;13.54;65.36;99581.56;4953223;29;20016;-84
2023/10/26 03:32:54;;;;;;;;;;;;;;;13.54;65.24;99572.63;4950259;29;20040;-85
2023/10/26 03:35:19;;;;;;;;;;;;;;;13.53;65.20;99571.81;4950758;29;19925;-84
2023/10/26 03:37:45;;;;;;;;;;;;;;;13.52;65.44;99572.91;4938194;29;20329;-84
2023/10/26 03:40:13;;;;;;;;;;;;;;;13.51;65.12;99565.88;4952802;28;20386;-84
2023/10/26 03:42:38;;;;;;;;;;;;;;;13.51;65.42;99571.31;4958258;28;20298;-85
2023/10/26 03:45:03;;;;;;;;;;;;;;;13.52;65.20;99572.09;4936390;29;19918;-85
2023/10/26 03:47:29;;;;;;;;;;;;;;;13.51;65.15;99565.88;4952216;29;19923;-84
2023/10/26 03:49:54;;;;;;;;;;;;;;;13.51;65.26;99562.38;4950028;29;19933;-84
2023/10/26 03:52:20;;;;;;;;;;;;;;;13.51;65.24;99556.94;4954109;28;20278;-84
2023/10/26 03:54:45;;;;;;;;;;;;;;;13.49;65.27;99559.94;4952819;29;19914;-83
2023/10/26 03:57:10;;;;;;;;;;;;;;;13.49;65.40;99567.25;4945627;28;19924;-83
2023/10/26 03:59:35;;;;;;;;;;;;;;;13.49;65.36;99569.97;4934102;29;19958;-83
2023/10/26 04:02:01;;;;;;;;;;;;;;;13.48;65.09;99577.31;4951799;29;20457;-82
2023/10/26 04:04:26;;;;;;;;;;;;;;;13.48;65.29;99576.47;4940447;28;19918;-83
2023/10/26 04:06:51;;;;;;;;;;;;;;;13.49;65.10;99575.41;4943870;29;19919;-84
2023/10/26 04:09:17;;;;;;;;;;;;;;;13.47;65.29;99567.53;4952056;29;19965;-84
2023/10/26 04:11:44;;;;;;;;;;;;;;;13.47;65.28;99567.53;4941070;29;19923;-84
2023/10/26 04:14:09;;;;;;;;;;;;;;;13.46;65.09;99565.94;4936434;29;20387;-84
2023/10/26 04:16:35;;;;;;;;;;;;;;;13.46;65.20;99567.84;4947969;29;19926;-84
2023/10/26 04:19:00;;;;;;;;;;;;;;;13.45;65.26;99568.94;4938876;29;19926;-84
2023/10/26 04:21:25;;;;;;;;;;;;;;;13.45;65.29;99558.06;4949651;28;19962;-85
2023/10/26 04:23:51;;;;;;;;;;;;;;;13.44;65.08;99565.41;4956019;28;19922;-83
2023/10/26 04:26:16;;;;;;;;;;;;;;;13.44;65.01;99556.47;4964894;28;19951;-84
2023/10/26 04:28:41;;;;;;;;;;;;;;;13.43;65.23;99561.09;4921553;29;19926;-84
2023/10/26 04:31:06;;;;;;;;;;;;;;;13.41;65.13;99555.97;4949075;28;20008;-84
2023/10/26 04:33:32;;;;;;;;;;;;;;;13.40;65.23;99559.75;4933756;29;19938;-83
2023/10/26 04:35:59;;;;;;;;;;;;;;;13.40;65.18;99567.09;4951450;29;20032;-83
2023/10/26 04:38:24;;;;;;;;;;;;;;;13.39;65.01;99560.84;4937764;28;19914;-83
2023/10/26 04:40:50;;;;;;;;;;;;;;;13.39;65.32;99562.78;4946047;29;20005;-83
2023/10/26 04:43:15;;;;;;;;;;;;;;;13.38;65.16;99567.41;4948899;28;20054;-84
2023/10/26 04:45:40;;;;;;;;;;;;;;;13.38;64.74;99563.84;4950708;29;20060;-83
2023/10/26 04:48:05;;;;;;;;;;;;;;;13.37;65.27;99560.34;4950001;29;20382;-83
2023/10/26 04:50:31;;;;;;;;;;;;;;;13.36;65.26;99561.44;4964095;28;20027;-83
2023/10/26 04:52:58;;;;;;;;;;;;;;;13.34;65.14;99555.50;4970565;28;19918;-82
2023/10/26 04:55:23;;;;;;;;;;;;;;;13.34;65.15;99558.22;4945785;28;19925;-83
2023/10/26 04:57:48;;;;;;;;;;;;;;;13.34;65.13;99560.13;4952016;28;19922;-82
2023/10/26 05:00:13;;;;;;;;;;;;;;;13.34;65.17;99568.25;4953305;28;19954;-82
2023/10/26 05:02:40;;;;;;;;;;;;;;;13.32;65.16;99563.09;4955727;28;19944;-82
2023/10/26 05:05:05;;;;;;;;;;;;;;;13.32;65.26;99559.59;4936140;29;19927;-82
2023/10/26 05:07:31;;;;;;;;;;;;;;;13.30;64.92;99553.66;4955548;29;19923;-84
2023/10/26 05:09:56;;;;;;;;;;;;;;;13.30;65.06;99557.16;4956468;29;19925;-85
2023/10/26 05:12:22;;;;;;;;;;;;;;;13.29;65.03;99552.03;4964567;28;19922;-84
2023/10/26 05:14:47;;;;;;;;;;;;;;;13.29;65.06;99549.34;4978592;28;19922;-84
2023/10/26 05:17:12;;;;;;;;;;;;;;;13.26;65.02;99545.28;4986677;28;19936;-85
2023/10/26 05:19:38;;;;;;;;;;;;;;;13.25;65.32;99548.25;4968286;28;20381;-83
2023/10/26 05:22:03;;;;;;;;;;;;;;;13.26;64.94;99550.69;4963854;29;19969;-83
2023/10/26 05:24:29;;;;;;;;;;;;;;;13.25;65.12;99545.53;4975737;28;20322;-84
2023/10/26 05:26:54;;;;;;;;;;;;;;;13.24;65.20;99543.94;4950769;28;19994;-85
2023/10/26 05:29:19;;;;;;;;;;;;;;;13.23;65.31;99543.13;4971219;29;19941;-87
2023/10/26 05:31:45;;;;;;;;;;;;;;;13.23;65.19;99539.59;4972912;29;19917;-85
2023/10/26 05:34:11;;;;;;;;;;;;;;;13.22;65.03;99541.50;4960356;29;20500;-88
2023/10/26 05:36:36;;;;;;;;;;;;;;;13.21;65.22;99543.41;4954295;29;19965;-87
2023/10/26 05:39:01;;;;;;;;;;;;;;;13.20;65.00;99536.38;4951036;29;19985;-88
2023/10/26 05:41:26;;;;;;;;;;;;;;;13.19;65.23;99534.75;4962909;29;19918;-88
2023/10/26 05:43:52;;;;;;;;;;;;;;;13.19;65.25;99533.97;4948662;29;19922;-88
2023/10/26 05:46:18;;;;;;;;;;;;;;;13.18;65.29;99529.66;4944296;29;20608;-87
2023/10/26 05:48:43;;;;;;;;;;;;;;;13.17;65.11;99534.22;4957093;29;20278;-88
2023/10/26 05:51:08;;;;;;;;;;;;;;;13.17;65.10;99528.81;4956417;28;20359;-86
2023/10/26 05:53:34;;;;;;;;;;;;;;;13.16;65.06;99529.13;4954289;29;19919;-88
2023/10/26 05:56:00;;;;;;;;;;;;;;;13.16;64.89;99529.13;4952534;29;19914;-85
2023/10/26 05:58:25;;;;;;;;;;;;;;;13.15;65.04;99535.63;4937698;29;19919;-87
2023/10/26 06:00:51;;;;;;;;;;;;;;;13.14;65.26;99531.31;4953948;29;20600;-85
2023/10/26 06:03:16;;;;;;;;;;;;;;;13.14;65.34;99534.03;4952141;29;19918;-86
2023/10/26 06:05:41;;;;;;;;;;;;;;;13.13;65.15;99530.50;4955396;29;19925;-83
2023/10/26 06:08:06;;;;;;;;;;;;;;;13.12;65.00;99531.59;4942762;28;20353;-77
2023/10/26 06:10:32;;;;;;;;;;;;;;;13.11;64.93;99524.56;4952339;29;20372;-91
2023/10/26 06:12:57;;;;;;;;;;;;;;;13.11;65.11;99515.63;4952180;29;19922;-91
2023/10/26 06:15:22;;;;;;;;;;;;;;;13.10;64.96;99511.28;4927462;29;19919;-91
2023/10/26 06:17:48;;;;;;;;;;;;;;;13.08;64.93;99511.59;4948648;29;20403;-90
2023/10/26 06:20:13;;;;;;;;;;;;;;;13.08;65.06;99508.88;4955745;28;19918;-88
2023/10/26 06:22:38;;;;;;;;;;;;;;;13.08;65.06;99508.88;4941388;29;19922;-89
2023/10/26 06:25:05;;;;;;;;;;;;;;;13.08;64.83;99516.19;4946066;28;20291;-90
2023/10/26 06:27:31;;;;;;;;;;;;;;;13.08;64.72;99521.59;4956517;29;19918;-88
2023/10/26 06:29:57;;;;;;;;;;;;;;;13.07;65.02;99518.09;4974164;28;20351;-87
2023/10/26 06:32:22;;;;;;;;;;;;;;;13.06;64.83;99515.69;4953704;29;20668;-88
2023/10/26 06:34:47;;;;;;;;;;;;;;;13.04;64.92;99513.25;4970689;29;19929;-89
2023/10/26 06:37:13;;;;;;;;;;;;;;;13.05;64.81;99525.69;4970926;29;19985;-90
2023/10/26 06:39:38;;;;;;;;;;;;;;;13.04;64.93;99526.81;4988716;28;19932;-88
2023/10/26 06:42:03;;;;;;;;;;;;;;;13.04;64.81;99532.22;4956881;29;19923;-86
2023/10/26 06:44:29;;;;;;;;;;;;;;;13.03;64.93;99517.06;4992357;28;20346;-88
2023/10/26 06:46:54;;;;;;;;;;;;;;;13.03;64.83;99518.94;4971037;29;19965;-88
2023/10/26 06:49:19;;;;;;;;;;;;;;;13.01;64.83;99511.13;4948224;29;19918;-88
2023/10/26 06:51:44;;;;;;;;;;;;;;;13.02;64.80;99518.16;4989841;28;19907;-91
2023/10/26 06:54:10;;;;;;;;;;;;;;;13.01;64.62;99524.69;4969448;28;19918;-90
2023/10/26 06:56:36;;;;;;;;;;;;;;;13.00;64.66;99523.03;4955855;29;19994;-92
2023/10/26 06:59:02;;;;;;;;;;;;;;;12.98;64.90;99531.47;4945851;29;20290;-88
2023/10/26 07:01:27;;;;;;;;;;;;;;;12.98;64.98;99528.78;4930200;29;20020;-86
2023/10/26 07:03:52;;;;;;;;;;;;;;;12.98;64.84;99525.25;4949542;28;20302;-88
2023/10/26 07:06:18;;;;;;;;;;;;;;;12.96;64.83;99522.81;4936312;29;20009;-88
2023/10/26 07:08:44;;;;;;;;;;;;;;;12.95;65.00;99515.81;4954659;28;19914;-90
2023/10/26 07:11:09;;;;;;;;;;;;;;;12.95;65.04;99514.97;4955118;29;19918;-91
2023/10/26 07:13:34;;;;;;;;;;;;;;;12.94;64.89;99516.09;4938092;29;20467;-90
2023/10/26 07:16:00;;;;;;;;;;;;;;;12.94;64.88;99516.09;4938436;29;19919;-91
2023/10/26 07:18:29;;;;;;;;;;;;;;;12.94;64.84;99524.22;4934980;29;19923;-90
2023/10/26 07:20:54;;;;;;;;;;;;;;;12.93;64.96;99533.44;4941762;29;20426;-88
2023/10/26 07:23:20;;;;;;;;;;;;;;;12.92;64.91;99526.41;4948670;28;20009;-89
2023/10/26 07:25:45;;;;;;;;;;;;;;;12.91;64.88;99522.88;4942396;28;19941;-90
2023/10/26 07:28:11;;;;;;;;;;;;;;;12.91;64.89;99520.19;4943970;29;20425;-90
2023/10/26 07:30:40;;;;;;;;;;;;;;;12.91;64.84;99524.78;4970095;28;20222;-89
2023/10/26 07:33:06;;;;;;;;;;;;;;;12.91;65.24;99519.38;4952960;29;19919;-90
2023/10/26 07:35:34;;;;;;;;;;;;;;;12.91;64.94;99525.59;4952571;29;19922;-90
2023/10/26 07:37:59;;;;;;;;;;;;;;;12.90;64.85;99518.56;4970486;28;19918;-90
2023/10/26 07:40:24;;;;;;;;;;;;;;;12.90;64.81;99524.00;4948686;28;19997;-89
2023/10/26 07:42:50;;;;;;;;;;;;;;;12.89;64.92;99522.34;4968326;28;19945;-89
2023/10/26 07:45:15;;;;;;;;;;;;;;;12.88;64.80;99526.19;4935729;29;19925;-89
2023/10/26 07:47:40;;;;;;;;;;;;;;;12.88;64.78;99523.47;4968375;28;19922;-90
2023/10/26 07:50:05;;;;;;;;;;;;;;;12.89;65.04;99527.78;4952512;29;20018;-88
2023/10/26 07:52:31;;;;;;;;;;;;;;;12.89;64.91;99530.50;4952316;29;19937;-87
2023/10/26 07:54:57;;;;;;;;;;;;;;;12.88;64.92;99526.19;4949863;29;19929;-89
2023/10/26 07:57:22;;;;;;;;;;;;;;;12.88;64.91;99531.59;4940990;29;20283;-89
2023/10/26 07:59:48;;;;;;;;;;;;;;;12.88;64.83;99531.59;4955566;28;19957;-86
2023/10/26 08:02:13;;;;;;;;;;;;;;;12.88;64.99;99531.59;4954199;28;19945;-86
2023/10/26 08:04:38;;;;;;;;;;;;;;;12.89;64.87;99537.81;4935399;29;19914;-88
2023/10/26 08:07:04;;;;;;;;;;;;;;;12.89;64.85;99537.81;4934674;29;19918;-90
2023/10/26 08:09:32;;;;;;;;;;;;;;;12.89;64.78;99541.34;4938135;29;19925;-86
2023/10/26 08:11:58;;;;;;;;;;;;;;;12.89;64.68;99537.81;4949213;29;19914;-86
2023/10/26 08:14:23;;;;;;;;;;;;;;;12.88;64.83;99537.03;4943270;29;20283;-84
2023/10/26 08:16:49;;;;;;;;;;;;;;;12.88;64.63;99537.03;4963318;28;19961;-87
2023/10/26 08:19:14;;;;;;;;;;;;;;;12.88;64.77;99545.16;4951023;29;19929;-83
2023/10/26 08:21:40;;;;;;;;;;;;;;;12.89;64.92;99543.25;4952039;28;19926;-85
2023/10/26 08:24:05;;;;;;;;;;;;;;;12.88;64.99;99545.16;4951673;29;20013;-87
2023/10/26 08:26:31;;;;;;;;;;;;;;;12.89;64.91;99544.03;4919341;29;20231;-85
2023/10/26 08:28:57;;;;;;;;;;;;;;;12.89;64.79;99543.25;4953121;28;20386;-86
2023/10/26 08:31:23;;;;;;;;;;;;;;;12.88;64.99;99541.63;4954741;28;19927;-85
2023/10/26 08:33:48;;;;;;;;;;;;;;;12.88;64.77;99541.63;4949231;28;19926;-85
2023/10/26 08:36:13;;;;;;;;;;;;;;;12.88;64.85;99544.34;4934236;29;20287;-88
2023/10/26 08:38:38;;;;;;;;;;;;;;;12.88;64.91;99550.56;4960419;28;20014;-87
2023/10/26 08:41:04;;;;;;;;;;;;;;;12.88;64.97;99550.56;4952246;28;19925;-86
2023/10/26 08:43:30;;;;;;;;;;;;;;;12.90;64.73;99550.25;4936406;29;19925;-86
2023/10/26 08:45:58;;;;;;;;;;;;;;;12.88;64.85;99547.84;4958087;28;20351;-85
2023/10/26 08:48:25;;;;;;;;;;;;;;;12.88;64.63;99539.72;4963821;28;19925;-85
2023/10/26 08:50:50;;;;;;;;;;;;;;;12.89;64.75;99537.81;4950268;29;20347;-85
2023/10/26 08:53:16;;;;;;;;;;;;;;;12.90;64.71;99542.13;4943984;29;19923;-85
2023/10/26 08:55:42;;;;;;;;;;;;;;;12.91;64.58;99549.19;4946554;28;20290;-85
2023/10/26 08:58:07;;;;;;;;;;;;;;;12.91;64.81;99544.56;4948729;28;19923;-87
2023/10/26 09:00:37;;;;;;;;;;;;;;;12.89;64.85;99544.03;4949958;29;19925;-85
2023/10/26 09:03:02;;;;;;;;;;;;;;;12.90;64.74;99539.41;4949845;28;20378;-87
2023/10/26 09:05:27;;;;;;;;;;;;;;;12.90;64.89;99540.25;4944043;29;19965;-84
2023/10/26 09:07:53;;;;;;;;;;;;;;;12.90;64.85;99536.72;4948951;29;19934;-87
2023/10/26 09:10:31;;;;;;;;;;;;;;;12.90;64.58;99542.13;4942303;29;20390;-86
2023/10/26 09:13:00;;;;;;;;;;;;;;;12.89;64.75;99544.03;4951214;29;19918;-85
2023/10/26 09:15:26;;;;;;;;;;;;;;;12.88;64.84;99539.72;4949943;28;19922;-85
2023/10/26 09:17:53;;;;;;;;;;;;;;;12.89;64.72;99535.91;4948959;29;20013;-84
2023/10/26 09:20:21;;;;;;;;;;;;;;;12.90;64.82;99534.00;4933177;29;19925;-82
2023/10/26 09:22:47;;;;;;;;;;;;;;;12.89;64.70;99527.78;4950959;29;19925;-85
2023/10/26 09:25:13;;;;;;;;;;;;;;;12.89;64.80;99532.41;4941314;29;19918;-85
2023/10/26 09:27:39;;;;;;;;;;;;;;;12.89;64.92;99526.97;4943827;28;20461;-84
2023/10/26 09:30:05;;;;;;;;;;;;;;;12.90;64.87;99526.69;4944059;29;19926;-85
2023/10/26 09:32:34;;;;;;;;;;;;;;;12.91;64.80;99532.94;4931905;29;19915;-88
2023/10/26 09:35:00;;;;;;;;;;;;;;;12.92;64.73;99537.25;4954853;28;19918;-84
2023/10/26 09:37:26;;;;;;;;;;;;;;;12.92;65.00;99532.63;4939894;28;19915;-85
2023/10/26 09:39:52;;;;;;;;;;;;;;;12.94;64.79;99524.22;4946914;28;19922;-86
2023/10/26 09:42:18;;;;;;;;;;;;;;;12.93;64.80;99520.69;4947745;29;19915;-86
2023/10/26 09:44:44;;;;;;;;;;;;;;;12.92;64.88;99516.34;4935413;29;20021;-85
2023/10/26 09:47:10;;;;;;;;;;;;;;;12.95;64.77;99509.56;4948217;29;20017;-87
2023/10/26 09:49:35;;;;;;;;;;;;;;;12.95;64.88;99504.97;4945610;29;19918;-86
2023/10/26 09:52:01;;;;;;;;;;;;;;;12.95;64.85;99496.84;4951070;28;20449;-86
2023/10/26 09:54:34;;;;;;;;;;;;;;;12.97;64.91;99493.81;4951852;29;19918;-87
2023/10/26 09:57:02;;;;;;;;;;;;;;;12.98;64.66;99493.53;4944171;28;19930;-86
2023/10/26 09:59:27;;;;;;;;;;;;;;;12.98;64.52;99487.31;4948962;29;19911;-86
2023/10/26 10:01:53;;;;;;;;;;;;;;;12.98;64.77;99487.31;4948148;28;19911;-86
2023/10/26 10:04:33;;;;;;;;;;;;;;;12.98;64.52;99496.25;4951231;28;19925;-85
2023/10/26 10:07:00;;;;;;;;;;;;;;;12.97;64.76;99491.91;4953163;29;19918;-87
2023/10/26 10:09:26;;;;;;;;;;;;;;;12.98;64.83;99495.44;4938221;29;20005;-87
2023/10/26 10:12:04;;;;;;;;;;;;;;;12.98;64.89;99490.03;4939794;28;20014;-87
2023/10/26 10:14:58;;;;;;;;;;;;;;;12.97;64.72;99482.97;4954974;28;20367;-87
2023/10/26 10:17:43;;;;;;;;;;;;;;;12.98;64.61;99487.31;4958377;28;19915;-86
2023/10/26 10:20:17;;;;;;;;;;;;;;;12.98;64.61;99490.81;4950852;29;19911;-86
2023/10/26 10:22:46;;;;;;;;;;;;;;;12.98;64.73;99485.41;4966518;28;19921;-86
2023/10/26 10:25:13;;;;;;;;;;;;;;;12.98;64.72;99490.81;4968929;28;19910;-85
2023/10/26 10:27:38;;;;;;;;;;;;;;;13.01;64.87;99488.63;4954213;28;19914;-84
2023/10/26 10:30:05;;;;;;;;;;;;;;;13.01;64.92;99478.59;4945595;29;19922;-85
2023/10/26 10:32:42;;;;;;;;;;;;;;;13.01;64.78;99480.50;4935069;29;19911;-86
2023/10/26 10:35:08;;;;;;;;;;;;;;;13.00;64.95;99474.25;4936466;29;19911;-86
2023/10/26 10:37:34;;;;;;;;;;;;;;;13.01;64.87;99485.94;4937650;29;20256;-85
2023/10/26 10:40:19;;;;;;;;;;;;;;;13.00;64.79;99482.38;4954313;29;19929;-83
2023/10/26 10:42:45;;;;;;;;;;;;;;;13.02;64.85;99482.09;4948386;28;19910;-85
2023/10/26 10:45:13;;;;;;;;;;;;;;;13.02;64.72;99473.97;4953384;29;19917;-87
2023/10/26 10:47:39;;;;;;;;;;;;;;;13.01;64.90;99478.59;4944820;29;19919;-86
2023/10/26 10:50:23;;;;;;;;;;;;;;;13.01;65.01;99478.59;4953142;29;20001;-85
2023/10/26 10:52:49;;;;;;;;;;;;;;;13.02;64.84;99474.78;4934714;29;19970;-85
2023/10/26 10:55:24;;;;;;;;;;;;;;;13.03;64.88;99471.00;4934045;29;20220;-85
2023/10/26 10:57:53;;;;;;;;;;;;;;;13.04;65.06;99464.47;4943701;29;19914;-85
2023/10/26 11:00:19;;;;;;;;;;;;;;;13.04;65.28;99459.03;4944358;29;20383;-85
2023/10/26 11:02:49;;;;;;;;;;;;;;;13.06;64.97;99456.03;4925062;29;19918;-85
2023/10/26 11:05:14;;;;;;;;;;;;;;;13.08;65.13;99456.53;4950113;29;20001;-87
2023/10/26 11:07:40;;;;;;;;;;;;;;;13.09;65.05;99466.31;4963693;28;20306;-86
2023/10/26 11:10:06;;;;;;;;;;;;;;;13.10;65.16;99476.03;4949127;29;20430;-85
2023/10/26 11:12:31;;;;;;;;;;;;;;;13.10;65.03;99467.91;4934519;29;19977;-86
2023/10/26 11:14:56;;;;;;;;;;;;;;;13.11;65.02;99477.66;4969753;28;20270;-86
2023/10/26 11:17:23;;;;;;;;;;;;;;;13.11;65.14;99464.91;4966161;28;20021;-86
2023/10/26 11:19:49;;;;;;;;;;;;;;;13.13;65.03;99457.31;4940446;29;19915;-87
2023/10/26 11:22:14;;;;;;;;;;;;;;;13.14;64.87;99448.06;4950848;28;19926;-86
2023/10/26 11:24:40;;;;;;;;;;;;;;;13.16;65.00;99439.66;4951960;29;20357;-88
2023/10/26 11:27:06;;;;;;;;;;;;;;;13.16;64.76;99436.94;4941727;28;19998;-87
2023/10/26 11:29:31;;;;;;;;;;;;;;;13.17;64.83;99438.53;4951053;29;19924;-88
2023/10/26 11:31:56;;;;;;;;;;;;;;;13.17;64.96;99439.34;4942969;28;19936;-87
2023/10/26 11:34:24;;;;;;;;;;;;;;;13.19;65.01;99444.47;4951662;28;20279;-85
2023/10/26 11:36:52;;;;;;;;;;;;;;;13.19;65.14;99449.91;4950808;29;19915;-85
2023/10/26 11:39:18;;;;;;;;;;;;;;;13.21;64.93;99458.56;4938323;29;19918;-86
2023/10/26 11:41:51;;;;;;;;;;;;;;;13.21;65.10;99453.13;4954241;28;20025;-85
2023/10/26 11:44:26;;;;;;;;;;;;;;;13.21;65.01;99445.00;4957182;28;19917;-86
2023/10/26 11:46:58;;;;;;;;;;;;;;;13.21;64.99;99439.56;4955042;29;20051;-86
2023/10/26 11:49:37;;;;;;;;;;;;;;;13.23;64.97;99442.81;4943744;28;19918;-87
2023/10/26 11:52:02;;;;;;;;;;;;;;;13.25;65.03;99443.31;4937694;29;20382;-86
2023/10/26 11:54:28;;;;;;;;;;;;;;;13.27;64.92;99441.13;4950352;28;20271;-88
2023/10/26 11:56:53;;;;;;;;;;;;;;;13.28;64.78;99431.94;4932674;29;19984;-87
2023/10/26 11:59:18;;;;;;;;;;;;;;;13.28;65.04;99426.50;4955699;29;19918;-85
2023/10/26 12:01:43;;;;;;;;;;;;;;;13.28;65.10;99431.09;4967076;29;19910;-84
2023/10/26 12:04:12;;;;;;;;;;;;;;;13.29;65.13;99432.72;4973800;28;20017;-85
2023/10/26 12:06:37;;;;;;;;;;;;;;;13.30;65.09;99437.03;4968464;28;19942;-84
2023/10/26 12:09:04;;;;;;;;;;;;;;;13.32;64.92;99445.69;4958924;29;20259;-87
2023/10/26 12:11:30;;;;;;;;;;;;;;;13.34;65.00;99452.44;4956200;29;19929;-86
2023/10/26 12:13:55;;;;;;;;;;;;;;;13.34;65.11;99451.63;4950274;28;19918;-87
2023/10/26 12:16:20;;;;;;;;;;;;;;;13.35;64.85;99445.91;4953206;29;19922;-87
2023/10/26 12:18:46;;;;;;;;;;;;;;;13.36;65.11;99441.31;4965725;28;20257;-86
2023/10/26 12:21:11;;;;;;;;;;;;;;;13.36;65.23;99433.16;4946850;29;20013;-86
2023/10/26 12:23:36;;;;;;;;;;;;;;;13.39;65.12;99430.66;4964791;28;20285;-86
2023/10/26 12:26:01;;;;;;;;;;;;;;;13.40;65.11;99434.97;4956754;28;19918;-87
2023/10/26 12:28:27;;;;;;;;;;;;;;;13.42;64.91;99432.78;4964804;29;20374;-85
2023/10/26 12:30:53;;;;;;;;;;;;;;;13.44;64.94;99434.41;4966291;28;19915;-85
2023/10/26 12:33:18;;;;;;;;;;;;;;;13.44;65.11;99440.63;4954852;29;19981;-87
2023/10/26 12:35:43;;;;;;;;;;;;;;;13.44;65.04;99435.22;4955271;28;19915;-85
2023/10/26 12:38:09;;;;;;;;;;;;;;;13.45;65.18;99430.59;4968179;29;19918;-87
2023/10/26 12:40:34;;;;;;;;;;;;;;;13.46;64.99;99433.03;4968121;29;19914;-85
2023/10/26 12:42:59;;;;;;;;;;;;;;;13.49;65.08;99424.28;4979141;28;20016;-85